Time;durP1;ratioP1;P1;durP2;ratioP2;P2;SDS_P1;SDS_P2;PMS_P1;PMS_P2;Temp;Humidity;BMP_temperature;BMP_pressure;BME280_temperature;BME280_humidity;BME280_pressure;Samples;Min_cycle;Max_cycle;Signal;HPM_P1;HPM_P2
2022/11/19 00:01:26;;;;;;;16.45;8.30;;;;;;;3.28;91.25;100591.97;4952639;28;20058;-44
2022/11/19 00:03:53;;;;;;;14.82;7.20;;;;;;;3.28;90.79;100594.72;4927907;29;20052;-44
2022/11/19 00:06:25;;;;;;;13.70;7.18;;;;;;;3.27;91.38;100597.72;4914376;29;20048;-43
2022/11/19 00:08:53;;;;;;;14.75;7.47;;;;;;;3.26;91.19;100598.84;4912840;29;20123;-44
2022/11/19 00:14:11;;;;;;;16.45;8.25;;;;;;;3.25;91.58;100594.50;4913162;29;20511;-48
2022/11/19 00:16:38;;;;;;;16.02;7.50;;;;;;;3.25;91.20;100594.50;4907052;29;20055;-51
2022/11/19 00:19:05;;;;;;;19.42;7.57;;;;;;;3.21;91.26;100594.28;4914139;29;20040;-47
2022/11/19 00:21:32;;;;;;;16.23;7.93;;;;;;;3.19;91.53;100588.28;4911330;29;20055;-44
2022/11/19 00:23:59;;;;;;;13.13;6.95;;;;;;;3.18;91.54;100583.94;4911865;29;20139;-47
2022/11/19 00:26:25;;;;;;;13.80;6.50;;;;;;;3.17;91.23;100587.78;4911383;29;20406;-45
2022/11/19 00:28:53;;;;;;;15.45;7.63;;;;;;;3.17;91.35;100592.44;4913545;29;20056;-44
2022/11/19 00:31:20;;;;;;;15.27;7.57;;;;;;;3.15;91.63;100600.16;4910955;29;20060;-44
2022/11/19 00:33:49;;;;;;;15.23;7.60;;;;;;;3.13;91.78;100596.88;4911296;29;20052;-44
2022/11/19 00:36:16;;;;;;;10.88;5.75;;;;;;;3.10;91.83;100598.28;4909638;29;20076;-48
2022/11/19 00:38:43;;;;;;;13.48;7.55;;;;;;;3.08;91.65;100605.97;4912433;29;20410;-44
2022/11/19 00:41:10;;;;;;;15.95;7.47;;;;;;;3.07;91.78;100604.38;4913565;29;20614;-43
2022/11/19 00:43:46;;;;;;;11.25;6.82;;;;;;;3.07;91.62;100594.22;4913515;29;20052;-44
2022/11/19 00:46:20;;;;;;;17.17;7.18;;;;;;;3.06;91.57;100603.56;4913358;29;20278;-44
2022/11/19 00:48:48;;;;;;;13.85;6.47;;;;;;;3.05;91.67;100610.13;4913628;29;20415;-49
2022/11/19 00:51:17;;;;;;;12.80;7.05;;;;;;;3.04;91.71;100615.91;4911079;29;20131;-45
2022/11/19 00:53:44;;;;;;;13.23;6.53;;;;;;;3.01;91.77;100614.59;4913858;29;20131;-45
2022/11/19 00:56:13;;;;;;;12.13;7.13;;;;;;;3.01;91.74;100620.06;4911920;29;20047;-51
2022/11/19 00:58:41;;;;;;;11.98;6.47;;;;;;;2.99;91.92;100622.25;4913517;29;20143;-46
2022/11/19 01:01:09;;;;;;;12.80;5.63;;;;;;;2.99;92.20;100626.94;4913046;29;20499;-46
2022/11/19 01:03:37;;;;;;;10.15;5.65;;;;;;;2.98;91.93;100634.31;4944497;29;20055;-45
2022/11/19 01:06:05;;;;;;;14.05;5.55;;;;;;;2.97;91.87;100632.69;4949350;29;20082;-45
2022/11/19 01:08:31;;;;;;;13.90;5.55;;;;;;;2.97;91.93;100629.94;4950869;29;20049;-47
2022/11/19 01:11:13;;;;;;;16.27;6.07;;;;;;;2.98;92.44;100636.25;4951502;28;20086;-45
2022/11/19 01:13:41;;;;;;;11.03;5.93;;;;;;;2.99;92.39;100633.19;4950941;29;20043;-45
2022/11/19 01:16:34;;;;;;;11.57;5.05;;;;;;;3.00;92.41;100634.81;4950485;28;20301;-44
2022/11/19 01:19:02;;;;;;;12.00;4.80;;;;;;;3.03;92.10;100636.97;4933432;29;20481;-47
2022/11/19 01:21:32;;;;;;;8.15;5.22;;;;;;;3.01;92.17;100631.00;4949946;29;20053;-46
2022/11/19 01:24:00;;;;;;;12.32;5.35;;;;;;;3.02;92.01;100629.88;4950868;28;20091;-44
2022/11/19 01:26:27;;;;;;;9.98;5.03;;;;;;;3.02;92.04;100635.34;4949809;28;20492;-51
2022/11/19 01:28:54;;;;;;;15.13;5.32;;;;;;;3.02;92.04;100629.88;4954216;28;21144;-44
2022/11/19 01:31:23;;;;;;;14.75;6.18;;;;;;;3.03;92.17;100627.94;4956043;28;20055;-44
2022/11/19 01:33:50;;;;;;;9.25;4.22;;;;;;;3.02;92.18;100640.81;4957160;28;20058;-45
2022/11/19 01:36:24;;;;;;;12.48;4.70;;;;;;;3.01;92.41;100639.19;4950410;29;20047;-50
2022/11/19 01:38:51;;;;;;;10.95;4.72;;;;;;;3.01;92.53;100630.19;4950447;29;20058;-49
2022/11/19 01:41:36;;;;;;;11.52;4.43;;;;;;;3.00;92.53;100631.28;4950624;29;20395;-45
2022/11/19 01:44:05;;;;;;;11.25;4.75;;;;;;;3.00;92.22;100631.28;4960006;28;20420;-51
2022/11/19 01:46:34;;;;;;;12.60;3.90;;;;;;;3.00;92.44;100631.28;4949826;29;20138;-45
2022/11/19 01:49:16;;;;;;;8.57;4.28;;;;;;;2.97;92.15;100642.81;4950743;28;20099;-45
2022/11/19 01:51:53;;;;;;;10.13;4.13;;;;;;;2.97;92.33;100643.63;4944334;29;20043;-45
2022/11/19 01:54:32;;;;;;;10.15;5.20;;;;;;;2.95;92.44;100645.03;4949751;29;20563;-48
2022/11/19 01:57:05;;;;;;;7.22;4.40;;;;;;;2.93;92.60;100637.13;4948147;29;20059;-46
2022/11/19 01:59:33;;;;;;;11.32;5.22;;;;;;;2.92;92.51;100635.50;4950789;28;20051;-45
2022/11/19 02:02:00;;;;;;;7.15;4.03;;;;;;;2.93;92.63;100617.19;4950551;28;20050;-45
2022/11/19 02:04:28;;;;;;;12.65;5.07;;;;;;;2.93;92.66;100620.72;4950137;29;20047;-44
2022/11/19 02:06:56;;;;;;;9.30;4.68;;;;;;;2.93;92.31;100625.38;4949352;29;20134;-45
2022/11/19 02:09:25;;;;;;;8.70;4.85;;;;;;;2.92;92.46;100640.97;4950408;29;20054;-44
2022/11/19 02:12:23;;;;;;;9.95;5.00;;;;;;;2.92;92.52;100642.88;4948730;29;20397;-43
2022/11/19 02:15:09;;;;;;;10.27;3.65;;;;;;;2.89;92.67;100663.44;4942867;28;20050;-44
2022/11/19 02:18:01;;;;;;;11.98;4.13;;;;;;;2.87;92.24;100673.84;4949699;28;20426;-45
2022/11/19 02:20:39;;;;;;;11.40;4.88;;;;;;;2.84;92.64;100655.31;4949922;28;20076;-44
2022/11/19 02:23:43;;;;;;;8.20;4.18;;;;;;;2.83;92.84;100661.88;4948993;28;20051;-48
2022/11/19 02:26:51;;;;;;;12.77;4.82;;;;;;;2.83;92.83;100648.19;4947875;28;20450;-44
2022/11/19 02:29:30;;;;;;;10.15;4.30;;;;;;;2.84;92.80;100644.38;4949925;28;20039;-44
2022/11/19 02:32:17;;;;;;;12.45;4.30;;;;;;;2.85;92.39;100646.00;4952139;28;20051;-44
2022/11/19 02:34:56;;;;;;;8.93;5.18;;;;;;;2.81;92.64;100634.03;4948146;28;20137;-44
2022/11/19 02:38:02;;;;;;;6.93;3.65;;;;;;;2.82;92.65;100640.31;4951413;28;20043;-44
2022/11/19 02:40:44;;;;;;;8.88;4.07;;;;;;;2.82;92.39;100645.78;4952926;28;20044;-44
2022/11/19 02:43:22;;;;;;;12.88;4.05;;;;;;;2.80;92.28;100648.81;4951833;28;20047;-45
2022/11/19 02:45:58;;;;;;;9.95;4.05;;;;;;;2.80;92.83;100648.81;4953113;28;20501;-44
2022/11/19 02:48:37;;;;;;;10.60;4.35;;;;;;;2.81;92.79;100660.53;4953756;29;20382;-44
2022/11/19 02:51:07;;;;;;;14.40;5.00;;;;;;;2.77;92.56;100660.34;4952074;29;20059;-44
2022/11/19 02:53:34;;;;;;;14.52;5.20;;;;;;;2.75;92.65;100654.38;4954034;28;20110;-44
2022/11/19 02:56:34;;;;;;;11.30;5.63;;;;;;;2.75;92.51;100648.91;4952979;29;20066;-44
2022/11/19 03:04:34;;;;;;;6.72;3.45;;;;;;;2.70;92.98;100651.69;4933764;29;20461;-44
2022/11/19 03:07:18;;;;;;;12.95;3.60;;;;;;;2.70;93.13;100659.88;4933631;29;20071;-45
2022/11/19 03:09:53;;;;;;;12.05;4.10;;;;;;;2.69;92.71;100652.81;4934963;29;20103;-49
2022/11/19 03:12:30;;;;;;;8.23;3.10;;;;;;;2.69;92.96;100652.00;4932738;29;20050;-50
2022/11/19 03:18:30;;;;;;;11.07;3.40;;;;;;;2.71;92.83;100650.59;4923983;29;20056;-44
2022/11/19 03:21:14;;;;;;;12.55;3.83;;;;;;;2.72;92.80;100646.75;4932708;29;20051;-49
2022/11/19 03:23:53;;;;;;;6.78;3.42;;;;;;;2.73;92.77;100648.34;4932393;29;20043;-44
2022/11/19 03:26:36;;;;;;;4.90;2.65;;;;;;;2.73;92.91;100648.34;4933619;29;20409;-44
2022/11/19 03:29:09;;;;;;;8.13;3.55;;;;;;;2.74;92.84;100644.53;4933690;29;20548;-45
2022/11/19 03:31:40;;;;;;;8.60;2.75;;;;;;;2.76;92.69;100647.78;4934572;29;20098;-44
2022/11/19 03:34:14;;;;;;;10.73;3.40;;;;;;;2.77;93.12;100645.84;4933721;29;20052;-44
2022/11/19 03:36:49;;;;;;;10.27;3.50;;;;;;;2.76;92.70;100650.50;4928602;29;20036;-44
2022/11/19 03:39:19;;;;;;;6.43;3.20;;;;;;;2.76;93.37;100647.78;4933608;29;20051;-44
2022/11/19 03:41:49;;;;;;;15.00;3.28;;;;;;;2.75;92.98;100650.81;4933372;29;20052;-44
2022/11/19 03:44:24;;;;;;;8.50;3.05;;;;;;;2.76;92.89;100647.78;4933981;29;20506;-45
2022/11/19 03:47:03;;;;;;;5.82;2.88;;;;;;;2.74;93.05;100649.19;4932918;29;20054;-44
2022/11/19 03:49:34;;;;;;;6.57;2.90;;;;;;;2.73;92.84;100650.28;4933677;29;20056;-46
2022/11/19 03:52:26;;;;;;;8.73;2.50;;;;;;;2.73;93.00;100658.47;4916706;29;20047;-46
2022/11/19 03:54:53;;;;;;;4.47;2.28;;;;;;;2.72;92.75;100660.41;4933713;29;20069;-44
2022/11/19 03:57:23;;;;;;;5.45;3.10;;;;;;;2.72;92.98;100656.88;4932595;29;20051;-45
2022/11/19 03:59:50;;;;;;;8.23;2.63;;;;;;;2.72;93.02;100656.88;4933429;29;20051;-45
2022/11/19 04:02:17;;;;;;;7.07;3.47;;;;;;;2.71;93.00;100661.50;4932190;29;20119;-45
2022/11/19 04:04:44;;;;;;;7.00;2.83;;;;;;;2.71;92.87;100666.97;4933878;29;20059;-44
2022/11/19 04:07:21;;;;;;;5.25;3.08;;;;;;;2.70;92.87;100675.50;4932329;29;20043;-52
2022/11/19 04:09:48;;;;;;;10.25;3.38;;;;;;;2.69;92.87;100669.22;4933367;29;20043;-44
2022/11/19 04:12:23;;;;;;;10.07;3.03;;;;;;;2.67;92.86;100679.63;4933629;29;20071;-44
2022/11/19 04:14:51;;;;;;;8.30;2.97;;;;;;;2.66;93.18;100674.44;4932247;29;20123;-44
2022/11/19 04:17:19;;;;;;;10.05;3.35;;;;;;;2.62;92.98;100671.47;4932715;29;20055;-46
2022/11/19 04:19:46;;;;;;;10.52;3.78;;;;;;;2.62;93.18;100673.41;4933039;29;20047;-44
2022/11/19 04:22:12;;;;;;;12.02;4.38;;;;;;;2.60;93.34;100665.50;4933110;29;20066;-51
2022/11/19 04:24:39;;;;;;;6.65;3.13;;;;;;;2.57;93.28;100663.34;4932883;29;20143;-47
2022/11/19 04:27:06;;;;;;;7.57;3.58;;;;;;;2.56;93.01;100667.19;4915643;29;20444;-49
2022/11/19 04:29:33;;;;;;;7.22;3.47;;;;;;;2.54;93.36;100672.16;4929649;29;20502;-44
2022/11/19 04:31:59;;;;;;;7.47;2.85;;;;;;;2.53;93.41;100678.72;4932864;29;20106;-45
2022/11/19 04:34:26;;;;;;;7.53;3.53;;;;;;;2.52;93.66;100671.63;4932783;29;20050;-44
2022/11/19 04:36:53;;;;;;;6.93;3.10;;;;;;;2.51;93.13;100671.91;4932308;29;20043;-48
2022/11/19 04:39:20;;;;;;;7.50;3.80;;;;;;;2.51;93.32;100680.13;4932011;29;20047;-45
2022/11/19 04:41:47;;;;;;;10.20;3.72;;;;;;;2.49;93.55;100676.88;4932245;29;20044;-44
2022/11/19 04:44:14;;;;;;;12.55;4.05;;;;;;;2.46;93.32;100679.06;4928555;29;20047;-44
2022/11/19 04:46:40;;;;;;;6.10;3.90;;;;;;;2.44;93.30;100672.25;4924140;29;20099;-45
2022/11/19 04:49:07;;;;;;;9.23;6.00;;;;;;;2.44;93.38;100672.25;4931820;29;20051;-45
2022/11/19 04:51:34;;;;;;;8.93;3.72;;;;;;;2.42;93.49;100669.84;4930543;29;20071;-44
2022/11/19 04:54:01;;;;;;;7.20;3.55;;;;;;;2.41;93.40;100665.47;4907764;29;20044;-44
2022/11/19 04:56:27;;;;;;;7.38;3.15;;;;;;;2.39;94.10;100669.59;4930585;29;20050;-48
2022/11/19 04:58:54;;;;;;;6.28;3.83;;;;;;;2.39;93.74;100669.59;4930283;29;20058;-46
2022/11/19 05:01:22;;;;;;;7.18;3.35;;;;;;;2.37;93.71;100671.81;4930235;29;20450;-46
2022/11/19 05:03:49;;;;;;;7.28;3.22;;;;;;;2.36;94.00;100678.38;4929860;29;20040;-45
2022/11/19 05:06:16;;;;;;;7.03;3.00;;;;;;;2.36;94.13;100676.47;4931152;29;20945;-49
2022/11/19 05:08:43;;;;;;;4.22;3.00;;;;;;;2.34;93.96;100684.16;4931120;29;20063;-48
2022/11/19 05:11:10;;;;;;;10.13;3.95;;;;;;;2.34;93.84;100677.88;4913433;29;20135;-46
2022/11/19 05:13:37;;;;;;;14.65;4.78;;;;;;;2.34;94.13;100672.41;4929110;29;20883;-46
2022/11/19 05:16:04;;;;;;;11.32;3.90;;;;;;;2.33;94.22;100674.31;4928592;29;20044;-44
2022/11/19 05:18:31;;;;;;;7.70;4.50;;;;;;;2.34;94.05;100677.88;4929997;29;20115;-45
2022/11/19 05:20:57;;;;;;;13.68;4.45;;;;;;;2.35;94.11;100679.50;4931701;29;20426;-46
2022/11/19 05:23:24;;;;;;;9.73;3.50;;;;;;;2.35;93.85;100679.50;4912375;29;20040;-44
2022/11/19 05:25:51;;;;;;;9.60;3.83;;;;;;;2.35;93.87;100676.78;4929358;29;20052;-44
2022/11/19 05:28:18;;;;;;;6.57;2.75;;;;;;;2.33;93.96;100687.19;4929599;29;20596;-50
2022/11/19 05:30:58;;;;;;;7.88;3.35;;;;;;;2.33;94.01;100687.97;4930619;29;20035;-47
2022/11/19 05:33:25;;;;;;;8.50;3.17;;;;;;;2.30;94.11;100687.75;4930869;29;20139;-44
2022/11/19 05:35:58;;;;;;;11.68;3.90;;;;;;;2.29;93.62;100686.94;4929306;29;20138;-43
2022/11/19 05:38:24;;;;;;;12.32;3.88;;;;;;;2.26;93.64;100692.97;4931136;29;20062;-44
2022/11/19 05:40:52;;;;;;;11.80;3.90;;;;;;;2.25;94.10;100690.56;4912199;29;20055;-46
2022/11/19 05:43:18;;;;;;;11.68;3.78;;;;;;;2.23;94.13;100693.56;4927241;29;20053;-45
2022/11/19 05:45:45;;;;;;;6.78;3.80;;;;;;;2.24;94.25;100697.94;4929141;29;20075;-44
2022/11/19 05:48:12;;;;;;;7.07;2.78;;;;;;;2.23;94.02;100696.28;4930298;29;20047;-45
2022/11/19 05:50:41;;;;;;;8.18;3.08;;;;;;;2.22;94.03;100702.06;4932166;29;20051;-45
2022/11/19 05:53:08;;;;;;;7.47;2.53;;;;;;;2.22;94.01;100696.59;4932199;29;20047;-46
2022/11/19 05:55:35;;;;;;;9.82;3.42;;;;;;;2.23;94.22;100701.75;4931461;29;20151;-45
2022/11/19 05:58:02;;;;;;;10.95;3.25;;;;;;;2.22;94.26;100702.88;4931077;29;20422;-45
2022/11/19 06:00:29;;;;;;;8.20;2.90;;;;;;;2.22;94.34;100702.88;4931367;29;20082;-44
2022/11/19 06:02:56;;;;;;;7.10;2.85;;;;;;;2.22;94.16;100697.41;4931401;29;20068;-45
2022/11/19 06:05:24;;;;;;;5.32;3.30;;;;;;;2.24;94.32;100697.13;4931104;29;20055;-44
2022/11/19 06:07:52;;;;;;;11.02;2.78;;;;;;;2.23;93.95;100687.28;4928467;29;20046;-44
2022/11/19 06:10:19;;;;;;;4.93;2.75;;;;;;;2.23;94.31;100684.56;4931589;29;20382;-45
2022/11/19 06:12:46;;;;;;;7.20;2.60;;;;;;;2.24;94.13;100681.53;4913073;29;20175;-44
2022/11/19 06:15:13;;;;;;;6.88;2.83;;;;;;;2.22;94.26;100670.09;4931181;29;20494;-44
2022/11/19 06:17:41;;;;;;;6.53;2.40;;;;;;;2.22;94.18;100678.28;4930761;29;20051;-45
2022/11/19 06:20:10;;;;;;;7.45;2.75;;;;;;;2.21;94.16;100675.84;4930402;29;20063;-44
2022/11/19 06:22:37;;;;;;;5.93;2.78;;;;;;;2.18;94.42;100673.69;4930117;29;20138;-47
2022/11/19 06:25:06;;;;;;;6.00;2.55;;;;;;;2.19;94.34;100672.59;4928512;29;20039;-44
2022/11/19 06:27:34;;;;;;;7.03;3.08;;;;;;;2.19;94.53;100675.31;4927945;29;20047;-44
2022/11/19 06:30:01;;;;;;;10.48;2.65;;;;;;;2.19;94.46;100669.88;4928741;29;20435;-50
2022/11/19 06:32:27;;;;;;;9.25;3.28;;;;;;;2.23;94.68;100665.44;4929319;29;20099;-46
2022/11/19 06:34:54;;;;;;;8.32;2.97;;;;;;;2.21;94.27;100667.66;4920085;29;20270;-44
2022/11/19 06:37:21;;;;;;;5.90;2.42;;;;;;;2.19;94.73;100673.41;4929284;29;20048;-46
2022/11/19 06:39:48;;;;;;;12.95;2.97;;;;;;;2.19;94.36;100684.34;4906847;29;20148;-44
2022/11/19 06:42:36;;;;;;;10.27;4.53;;;;;;;2.18;94.24;100688.16;4926605;29;20425;-46
2022/11/19 06:45:08;;;;;;;6.78;2.83;;;;;;;2.18;94.49;100681.88;4929544;29;20664;-47
2022/11/19 06:47:36;;;;;;;4.50;1.90;;;;;;;2.16;94.45;100673.19;4929293;29;20079;-45
2022/11/19 06:50:04;;;;;;;6.70;2.70;;;;;;;2.16;94.58;100670.44;4930270;29;20397;-44
2022/11/19 06:52:31;;;;;;;7.93;2.58;;;;;;;2.15;94.16;100663.34;4929873;29;20058;-45
2022/11/19 06:54:59;;;;;;;4.90;2.58;;;;;;;2.09;94.38;100659.06;4928921;29;20138;-46
2022/11/19 06:57:25;;;;;;;6.57;2.97;;;;;;;2.08;94.46;100665.63;4929359;29;20056;-44
2022/11/19 06:59:52;;;;;;;7.63;3.65;;;;;;;2.04;94.47;100656.41;4927654;29;20067;-44
2022/11/19 07:02:22;;;;;;;5.25;2.25;;;;;;;2.01;94.47;100665.16;4929142;29;20139;-45
2022/11/19 07:04:49;;;;;;;3.45;2.08;;;;;;;1.97;94.65;100664.94;4926062;29;20105;-45
2022/11/19 07:07:17;;;;;;;5.18;2.08;;;;;;;1.93;94.37;100660.34;4929781;29;20490;-46
2022/11/19 07:09:44;;;;;;;4.70;2.50;;;;;;;1.93;94.75;100663.91;4930068;29;20053;-44
2022/11/19 07:12:12;;;;;;;7.32;2.58;;;;;;;1.88;94.73;100657.66;4930165;29;20070;-45
2022/11/19 07:14:39;;;;;;;8.63;2.35;;;;;;;1.86;95.00;100660.66;4927501;29;20071;-44
2022/11/19 07:17:06;;;;;;;8.80;2.80;;;;;;;1.81;94.91;100642.44;4926490;29;20110;-47
2022/11/19 07:19:33;;;;;;;4.22;2.17;;;;;;;1.78;94.74;100648.47;4933971;29;20047;-44
2022/11/19 07:21:59;;;;;;;5.13;2.17;;;;;;;1.77;95.17;100633.19;4933749;29;20486;-46
2022/11/19 07:24:26;;;;;;;11.02;3.17;;;;;;;1.78;95.20;100648.47;4937198;29;20420;-50
2022/11/19 07:26:54;;;;;;;6.85;2.90;;;;;;;1.78;95.27;100659.41;4930125;29;20047;-44
2022/11/19 07:29:20;;;;;;;5.22;2.20;;;;;;;1.78;94.92;100659.41;4932929;29;20055;-46
2022/11/19 07:31:49;;;;;;;4.75;2.55;;;;;;;1.77;95.14;100657.75;4931690;29;20482;-46
2022/11/19 07:34:16;;;;;;;5.97;2.30;;;;;;;1.78;95.15;100658.56;4930364;29;20110;-45
2022/11/19 07:36:44;;;;;;;5.90;2.67;;;;;;;1.81;95.25;100658.00;4932648;29;20039;-45
2022/11/19 07:39:11;;;;;;;5.97;2.50;;;;;;;1.82;94.93;100652.28;4931624;29;20050;-44
2022/11/19 07:44:25;;;;;;;7.40;2.95;;;;;;;1.87;94.88;100653.31;4931265;29;20063;-47
2022/11/19 07:46:53;;;;;;;6.03;2.17;;;;;;;1.84;94.65;100654.69;4928789;29;20502;-44
2022/11/19 07:49:20;;;;;;;10.70;4.05;;;;;;;1.82;94.75;100644.09;4931751;29;20465;-44
2022/11/19 07:51:48;;;;;;;7.05;2.17;;;;;;;1.83;94.81;100645.69;4940953;29;20070;-44
2022/11/19 07:54:15;;;;;;;6.00;2.60;;;;;;;1.81;94.63;100647.91;4933096;29;20086;-46
2022/11/19 07:56:42;;;;;;;9.10;3.15;;;;;;;1.81;94.74;100634.25;4931946;29;20050;-45
2022/11/19 07:59:10;;;;;;;10.10;3.53;;;;;;;1.81;94.59;100634.25;4933676;29;20059;-44
2022/11/19 08:01:37;;;;;;;6.68;2.67;;;;;;;1.78;94.48;100631.28;4933125;29;20083;-45
2022/11/19 08:04:04;;;;;;;9.32;4.20;;;;;;;1.74;94.50;100631.06;4931353;29;20074;-47
2022/11/19 08:06:33;;;;;;;5.65;2.97;;;;;;;1.75;94.91;100635.41;4933063;29;20138;-45
2022/11/19 08:09:01;;;;;;;4.68;2.70;;;;;;;1.79;95.01;100633.75;4933703;29;20294;-46
2022/11/19 08:11:28;;;;;;;6.35;2.35;;;;;;;1.82;94.99;100616.78;4933446;29;20051;-48
2022/11/19 08:13:58;;;;;;;5.80;2.80;;;;;;;1.84;94.89;100633.69;4923393;29;20039;-44
2022/11/19 08:19:13;;;;;;;12.38;3.60;;;;;;;1.88;95.15;100622.19;4931108;29;20135;-47
2022/11/19 08:21:45;;;;;;;9.18;4.30;;;;;;;1.94;94.84;100608.16;4932679;29;20154;-51
2022/11/19 08:24:12;;;;;;;;;;;;;;;1.98;94.83;100611.13;4932326;29;20056;-46
2022/11/19 08:26:40;;;;;;;6.70;3.08;;;;;;;2.00;94.84;100617.13;4933461;29;19977;-49
2022/11/19 08:29:07;;;;;;;13.27;3.42;;;;;;;2.05;95.03;100625.25;4931872;29;20051;-46
2022/11/19 08:31:44;;;;;;;13.85;3.97;;;;;;;2.10;94.66;100616.97;4933211;29;20127;-46
2022/11/19 08:34:11;;;;;;;9.05;2.75;;;;;;;2.10;94.95;100614.25;4916665;29;20134;-49
2022/11/19 08:36:38;;;;;;;5.15;2.45;;;;;;;2.12;94.87;100615.59;4933243;29;21089;-45
2022/11/19 08:39:05;;;;;;;7.47;2.58;;;;;;;2.18;94.62;100619.06;4932780;29;20074;-46
2022/11/19 08:44:19;;;;;;;9.20;4.03;;;;;;;2.28;94.89;100605.28;4932979;29;20048;-44
2022/11/19 08:46:47;;;;;;;4.13;2.33;;;;;;;2.30;94.58;100614.78;4931956;29;20146;-44
2022/11/19 08:49:13;;;;;;;6.80;2.38;;;;;;;2.35;95.12;100614.75;4930615;29;20062;-44
2022/11/19 08:51:40;;;;;;;6.40;2.80;;;;;;;2.41;94.88;100610.81;4911149;29;20086;-44
2022/11/19 08:54:07;;;;;;;10.15;3.88;;;;;;;2.45;95.02;100613.78;4931982;29;20054;-44
2022/11/19 08:56:34;;;;;;;6.68;3.17;;;;;;;2.50;94.65;100615.63;4930815;29;20063;-47
2022/11/19 08:59:01;;;;;;;5.97;3.40;;;;;;;2.52;94.79;100608.75;4932768;29;20164;-47
2022/11/19 09:01:29;;;;;;;11.27;4.50;;;;;;;2.54;94.72;100617.50;4928840;29;20473;-43
2022/11/19 09:03:55;;;;;;;30.38;5.95;;;;;;;2.55;94.43;100610.91;4931671;29;20082;-43
2022/11/19 09:06:22;;;;;;;12.60;4.35;;;;;;;2.58;94.62;100606.78;4931048;29;20504;-43
2022/11/19 09:08:49;;;;;;;8.23;5.20;;;;;;;2.61;94.64;100617.13;4912001;29;20046;-49
2022/11/19 09:11:19;;;;;;;9.82;3.83;;;;;;;2.62;94.68;100614.06;4928870;29;20169;-43
2022/11/19 09:13:46;;;;;;;10.25;4.03;;;;;;;2.62;94.46;100613.28;4930072;29;20572;-44
2022/11/19 09:16:13;;;;;;;9.43;4.40;;;;;;;2.60;94.58;100616.31;4913890;29;20051;-44
2022/11/19 09:18:41;;;;;;;10.48;5.93;;;;;;;2.62;95.04;100614.06;4931657;29;20395;-43
2022/11/19 09:21:09;;;;;;;13.90;5.55;;;;;;;2.68;94.86;100623.03;4914830;29;20395;-44
2022/11/19 09:23:37;;;;;;;14.65;5.68;;;;;;;2.72;95.12;100608.47;4932400;29;20060;-43
2022/11/19 09:26:06;;;;;;;12.90;6.40;;;;;;;2.78;95.07;100611.97;4932012;29;20126;-42
2022/11/19 09:28:34;;;;;;;10.32;4.88;;;;;;;2.83;94.93;100615.41;4931320;29;20085;-43
2022/11/19 09:31:06;;;;;;;11.30;5.55;;;;;;;2.89;94.78;100603.28;4914140;29;20047;-44
2022/11/19 09:33:35;;;;;;;11.95;6.22;;;;;;;2.96;95.17;100592.78;4931958;29;20044;-43
2022/11/19 09:36:03;;;;;;;37.25;11.55;;;;;;;3.04;95.02;100588.56;4931796;29;20051;-42
2022/11/19 09:38:34;;;;;;;29.58;11.40;;;;;;;3.15;95.15;100589.22;4930570;29;20271;-48
2022/11/19 09:41:16;;;;;;;62.10;21.05;;;;;;;3.31;94.67;100588.63;4931097;29;20054;-45
2022/11/19 09:44:16;;;;;;;105.95;40.05;;;;;;;3.46;94.40;100584.81;4931870;29;20134;-44
2022/11/19 09:46:43;;;;;;;42.92;16.08;;;;;;;3.61;94.38;100587.25;4926662;29;20044;-44
2022/11/19 09:49:16;;;;;;;26.42;10.80;;;;;;;3.71;94.37;100583.53;4932508;29;20055;-51
2022/11/19 09:51:47;;;;;;;;;;;;;;;3.77;94.05;100574.91;4932648;29;20383;-47
2022/11/19 09:54:17;;;;;;;21.63;9.38;;;;;;;3.80;93.84;100574.28;4931521;29;20289;-45
2022/11/19 09:56:46;;;;;;;19.55;7.93;;;;;;;3.84;93.87;100574.50;4931530;29;20112;-42
2022/11/19 09:59:40;;;;;;;22.75;8.18;;;;;;;3.85;94.14;100570.63;4931786;29;20514;-43
2022/11/19 10:02:18;;;;;;;17.40;7.65;;;;;;;3.85;94.09;100560.50;4928490;29;20059;-45
2022/11/19 10:04:46;;;;;;;16.30;6.63;;;;;;;3.88;94.29;100559.88;4929364;29;20130;-44
2022/11/19 10:07:32;;;;;;;9.77;4.80;;;;;;;3.95;94.53;100545.75;4931240;29;20103;-43
2022/11/19 10:10:32;;;;;;;14.90;3.83;;;;;;;4.02;94.35;100544.25;4931421;29;20052;-43
2022/11/19 10:13:10;;;;;;;9.18;3.97;;;;;;;4.13;94.34;100542.13;4931272;29;20052;-43
2022/11/19 10:15:52;;;;;;;5.65;2.35;;;;;;;4.22;94.14;100538.31;4931370;29;20052;-43
2022/11/19 10:18:58;;;;;;;6.23;2.17;;;;;;;4.31;94.00;100541.94;4928962;29;20051;-43
2022/11/19 10:21:40;;;;;;;3.78;1.67;;;;;;;4.40;93.73;100549.44;4887709;29;20315;-43
2022/11/19 10:24:17;;;;;;;6.28;1.90;;;;;;;4.48;93.98;100560.47;4890217;29;20076;-45
2022/11/19 10:26:59;;;;;;;3.58;1.60;;;;;;;4.57;93.44;100555.06;4916604;29;20048;-43
2022/11/19 10:29:37;;;;;;;8.90;2.08;;;;;;;4.65;93.22;100554.34;4929462;29;20056;-43
2022/11/19 10:32:49;;;;;;;4.95;2.15;;;;;;;4.72;93.26;100551.97;4931136;29;20047;-44
2022/11/19 10:35:21;;;;;;;5.05;1.48;;;;;;;4.74;93.57;100555.19;4928964;29;20043;-45
2022/11/19 10:37:59;;;;;;;5.93;1.67;;;;;;;4.80;93.51;100543.81;4930222;29;20398;-43
2022/11/19 10:40:38;;;;;;;7.57;2.08;;;;;;;4.87;93.23;100538.69;4930298;29;20051;-44
2022/11/19 10:43:14;;;;;;;4.00;1.48;;;;;;;4.92;93.15;100538.56;4930966;29;20047;-43
2022/11/19 10:45:46;;;;;;;5.75;1.40;;;;;;;5.01;92.95;100538.63;4929791;29;20044;-46
2022/11/19 10:48:20;;;;;;;6.35;1.92;;;;;;;5.08;93.32;100533.53;4915871;29;20409;-48
2022/11/19 10:50:46;;;;;;;4.95;2.78;;;;;;;5.18;92.78;100537.94;4930656;29;20082;-46
2022/11/19 10:53:42;;;;;;;8.23;3.05;;;;;;;5.23;92.63;100535.84;4932686;29;20147;-43
2022/11/19 10:56:17;;;;;;;9.18;2.13;;;;;;;5.29;92.35;100511.84;4933024;29;20138;-45
2022/11/19 10:59:07;;;;;;;6.25;1.58;;;;;;;5.33;92.43;100499.09;4933829;29;20047;-48
2022/11/19 11:01:37;;;;;;;4.18;1.98;;;;;;;5.35;92.09;100503.13;4931197;29;20051;-49
2022/11/19 11:04:25;;;;;;;8.45;1.98;;;;;;;5.37;91.91;100500.09;4933413;29;20054;-46
2022/11/19 11:06:54;;;;;;;9.15;3.70;;;;;;;5.40;91.78;100486.53;4933790;29;20048;-43
2022/11/19 11:09:35;;;;;;;11.52;4.35;;;;;;;5.43;91.67;100477.66;4930205;29;21627;-42
2022/11/19 11:15:25;;;;;;;23.45;9.45;;;;;;;5.45;91.28;100461.66;4930547;29;20126;-47
2022/11/19 11:18:02;;;;;;;15.73;7.10;;;;;;;5.49;91.57;100453.59;4927631;29;20043;-44
2022/11/19 11:20:29;;;;;;;30.15;10.02;;;;;;;5.52;91.21;100445.56;4928292;29;20060;-43
2022/11/19 11:23:07;;;;;;;25.05;9.13;;;;;;;5.58;91.18;100435.25;4930008;29;20079;-43
2022/11/19 11:25:37;;;;;;;29.83;11.32;;;;;;;5.62;90.90;100424.41;4930315;29;20039;-43
2022/11/19 11:28:10;;;;;;;18.42;6.63;;;;;;;5.68;90.68;100431.38;4930928;29;20118;-46
2022/11/19 11:30:50;;;;;;;20.13;7.85;;;;;;;5.72;90.67;100430.41;4933434;29;20039;-45
2022/11/19 11:33:29;;;;;;;12.18;5.22;;;;;;;5.76;90.44;100420.41;4926558;29;20054;-44
2022/11/19 11:35:59;;;;;;;17.63;7.68;;;;;;;5.81;90.48;100416.69;4929708;29;20051;-43
2022/11/19 11:38:27;;;;;;;10.65;7.10;;;;;;;5.85;90.21;100401.22;4935546;29;20242;-43
2022/11/19 11:41:05;;;;;;;8.45;5.25;;;;;;;5.89;90.24;100405.75;4932095;29;20055;-45
2022/11/19 11:44:04;;;;;;;15.55;6.20;;;;;;;5.93;90.13;100406.69;4927347;29;20051;-51
2022/11/19 11:46:39;;;;;;;11.30;6.15;;;;;;;5.97;90.14;100407.69;4927282;29;20055;-47
2022/11/19 11:49:18;;;;;;;18.00;6.93;;;;;;;6.01;89.85;100396.88;4929748;29;20593;-51
2022/11/19 11:51:45;;;;;;;13.00;3.75;;;;;;;6.04;89.80;100397.00;4932709;29;20043;-47
2022/11/19 11:54:16;;;;;;;6.60;3.67;;;;;;;6.09;89.58;100391.34;4930717;29;20051;-52
2022/11/19 11:56:44;;;;;;;16.52;2.95;;;;;;;6.14;89.57;100387.66;4927037;29;20048;-44
2022/11/19 11:59:20;;;;;;;10.38;4.35;;;;;;;6.19;89.51;100379.25;4915619;29;20048;-45
2022/11/19 12:01:55;;;;;;;6.22;1.55;;;;;;;6.22;89.29;100375.84;4928220;29;20462;-46
2022/11/19 12:04:23;;;;;;;12.05;1.92;;;;;;;6.27;88.73;100378.41;4929664;29;20071;-47
2022/11/19 12:07:04;;;;;;;3.53;1.25;;;;;;;6.33;88.58;100373.56;4896178;29;20132;-44
2022/11/19 12:09:41;;;;;;;6.22;1.23;;;;;;;6.36;88.42;100370.13;4932051;29;20048;-49
2022/11/19 12:12:34;;;;;;;5.55;1.83;;;;;;;6.43;88.08;100368.53;4930068;29;20059;-52
2022/11/19 12:15:22;;;;;;;5.80;2.08;;;;;;;6.50;87.97;100374.34;4925206;29;20120;-45